This is the latest recevied weather packets stored in our database for station/object KC7YCE. If no packets are shown the sender has not sent any weather packets the latest 10 day(s).
| Time | Temp. | Humidity | Pressure | Rain* | Wind** | Luminosity | Snow |
|---|---|---|---|---|---|---|---|
| 1777778886 | 3.89° C | 52% | 1023.2 hPa | 0 mm | - | - | - |
| 1777778257 | 4.44° C | 49% | 1023.1 hPa | 0 mm | - | - | - |
| 1777777656 | 5° C | 46% | 1023.1 hPa | 0 mm | - | - | - |
| 1777777056 | 5.56° C | 44% | 1023 hPa | 0 mm | - | - | - |
| 1777776459 | 6.11° C | 41% | 1022.9 hPa | 0 mm | - | - | - |
| 1777775856 | 7.22° C | 38% | 1022.8 hPa | 0 mm | - | - | - |
| 1777775256 | 7.78° C | 37% | 1022.7 hPa | 0 mm | - | - | - |
| 1777774656 | 8.89° C | 32% | 1022.6 hPa | 0 mm | - | - | - |
| 1777774026 | 9.44° C | 31% | 1022.4 hPa | 0 mm | - | - | - |
| 1777773426 | 10.56° C | 29% | 1022.3 hPa | 0 mm | - | - | - |
| 1777772796 | 11.11° C | 29% | 1022.2 hPa | 0 mm | - | - | - |
| 1777772196 | 11.11° C | 27% | 1022.2 hPa | 0 mm | - | - | - |
| 1777771596 | 11.67° C | 26% | 1022.2 hPa | 0 mm | - | - | - |
| 1777770395 | 12.78° C | 24% | 1022.1 hPa | 0 mm | - | - | - |
| 1777769800 | 13.33° C | 20% | 1022.1 hPa | 0 mm | - | - | - |
| 1777769197 | 13.89° C | 20% | 1022.1 hPa | 0 mm | - | - | - |
| 1777768596 | 14.44° C | 20% | 1022.1 hPa | 0 mm | - | - | - |
| 1777767996 | 14.44° C | 20% | 1022.1 hPa | 0 mm | - | - | - |
| 1777767395 | 14.44° C | 21% | 1022 hPa | 0 mm | - | - | - |
| 1777766195 | 15° C | 20% | 1022.1 hPa | 0 mm | - | - | - |
| 1777765565 | 15° C | 19% | 1022.1 hPa | 0 mm | - | - | - |
| 1777764335 | 15.56° C | 21% | 1022.2 hPa | 0 mm | - | - | - |
| 1777763705 | 15.56° C | 20% | 1022.1 hPa | 0 mm | - | - | - |
| 1777763105 | 15.56° C | 21% | 1022.1 hPa | 0 mm | - | - | - |
| 1777762505 | 15.56° C | 20% | 1022.3 hPa | 0 mm | - | - | - |
* Rain latest hour (hover to see other rain measurements)
** Current wind speed in m/s (hover to see current wind gust speed)